Terminal Aerodrome Forecast
Issued by NWS

Home | Current Version | Previous Version | Graphics & Text | Print | Product List | Glossary On
Versions: 1 2 3 4 5 6 7 8 9 10 11 12 13 14
352
FTUS43 KGRB 231120
TAFAUW
TAF
KAUW 231120Z 2312/2412 15006KT P6SM OVC050
      TEMPO 2312/2313 5SM -SHSN
     FM231300 16009G18KT P6SM OVC070
     FM232000 16010G17KT P6SM OVC045 WS020/21040KT
     FM240000 15008KT P6SM -RA OVC030 WS020/21040KT
     FM240200 15007KT P6SM -RA OVC024 WS020/23045KT
     FM240400 15003KT 6SM -RA OVC013 WS020/26050KT=

USA.gov is the U.S. government's official web portal to all federal, state and local government web resources and services.